Aplicació Alertes

Dades de l'estació automàtica Vallfogona de Balaguer

?
?
Resum diari 22:30 TU
Dades diàries de l'estació meteorològica
Temperatura mitjana 1.5 °C
Temperatura màxima 9.2 °C 13:59 TU
Temperatura mínima -4.3 °C 7:33 TU
Humitat relativa mitjana 76%
Precipitació acumulada 0.0 mm
Ratxa màxima del vent (2 m) 16.6 km/h - 265º 15:15 TU
Irradiació solar global 9.4 MJ/m2

El tram horari està expressat en Temps Universal (TU). Cal sumar una hora en horari d'hivern i dues en horari d'estiu per passar a l'hora oficial.

Vallfogona de Balaguer

Metadades estació meteorol´gica
Municipi Vallfogona de Balaguer
Comarca Noguera
Altitud 238 m
Data alta 17.10.1990
Estat actual Operativa
Dades de període
Període
TU
TM
°C
TX
°C
TN
°C
HRM
%
PPT
mm
VVM (2 m)
km/h
DVM (2 m)
graus
VVX (2 m)
km/h
RS
W/m2
00:00 - 00:30 -1.2 -1.1 -1.5 88 0.0 1.8 7 6.1 0
00:30 - 01:00 -1.2 -1.2 -1.4 89 0.0 1.4 12 8.3 0
01:00 - 01:30 -1.1 0.3 -1.6 90 0.0 2.9 24 8.6 0
01:30 - 02:00 -0.6 0.2 -1.3 88 0.0 2.5 128 8.3 0
02:00 - 02:30 -1.3 -1.1 -1.6 89 0.0 1.4 1 5.0 0
02:30 - 03:00 -1.6 -1.3 -1.8 90 0.0 1.8 30 4.7 0
03:00 - 03:30 -2.1 -1.7 -2.5 91 0.0 1.8 351 3.6 0
03:30 - 04:00 -2.3 -1.6 -2.6 91 0.0 2.9 16 7.6 0
04:00 - 04:30 -1.3 -1.0 -1.8 92 0.0 4.3 9 9.7 0
04:30 - 05:00 -2.5 -1.8 -3.4 90 0.0 2.2 345 6.5 0
05:00 - 05:30 -3.3 -2.9 -3.6 91 0.0 4.0 7 9.4 0
05:30 - 06:00 -3.4 -3.3 -3.8 92 0.0 1.1 15 3.6 0
06:00 - 06:30 -4.0 -3.6 -4.2 92 0.0 2.2 16 6.5 0
06:30 - 07:00 -3.4 -3.3 -3.7 92 0.0 3.6 359 7.6 0
07:00 - 07:30 -4.0 -3.6 -4.2 92 0.0 0.7 48 3.6 4
07:30 - 08:00 -3.9 -3.3 -4.3 92 0.0 4.0 8 9.4 78
08:00 - 08:30 -2.8 -2.1 -3.2 92 0.0 4.7 1 10.4 205
08:30 - 09:00 -1.4 -0.8 -2.1 91 0.0 4.7 7 8.6 293
09:00 - 09:30 -0.1 0.6 -0.8 89 0.0 4.3 358 7.2 392
09:30 - 10:00 1.8 2.9 0.6 86 0.0 2.2 158 7.9 368
10:00 - 10:30 3.1 3.4 2.9 75 0.0 2.9 202 7.6 343
10:30 - 11:00 3.9 4.9 3.3 71 0.0 4.0 206 8.6 393
11:00 - 11:30 5.2 5.5 4.8 66 0.0 4.0 206 10.1 422
11:30 - 12:00 5.6 6.4 5.2 61 0.0 4.3 221 11.9 436
12:00 - 12:30 6.6 7.0 6.3 58 0.0 5.8 218 12.6 433
12:30 - 13:00 7.2 7.7 6.8 56 0.0 5.8 220 15.8 418
13:00 - 13:30 8.1 8.6 7.5 48 0.0 6.1 248 13.3 392
13:30 - 14:00 8.7 9.2 8.6 42 0.0 6.1 263 12.2 349
14:00 - 14:30 8.9 9.2 8.8 35 0.0 9.4 269 16.2 298
14:30 - 15:00 8.7 9.0 8.5 38 0.0 7.9 269 14.0 205
15:00 - 15:30 8.4 8.5 8.1 40 0.0 7.6 256 16.6 157
15:30 - 16:00 7.7 8.1 7.3 46 0.0 7.6 254 11.9 80
16:00 - 16:30 6.8 7.3 6.1 51 0.0 3.2 286 7.9 18
16:30 - 17:00 5.3 6.0 4.6 56 0.0 1.4 227 4.3 0
17:00 - 17:30 4.5 4.6 4.3 60 0.0 2.5 254 5.4 0
17:30 - 18:00 3.9 4.4 2.6 61 0.0 0.7 343 4.7 0
18:00 - 18:30 1.9 2.6 1.2 71 0.0 1.4 48 9.7 0
18:30 - 19:00 0.6 1.2 0.3 77 0.0 1.1 7 5.4 0
19:00 - 19:30 0.2 0.4 -0.1 80 0.0 4.0 5 6.5 0
19:30 - 20:00 0.4 0.9 -0.2 81 0.0 4.0 351 8.3 0
20:00 - 20:30 1.0 1.4 0.3 78 0.0 2.2 359 6.8 0
20:30 - 21:00 0.1 0.3 0.0 83 0.0 3.2 6 8.3 0
21:00 - 21:30 0.1 0.5 0.0 84 0.0 1.4 3 5.0 0
21:30 - 22:00 0.1 0.5 0.0 83 0.0 0.7 360 4.7 0
22:00 - 22:30 0.0 0.0 0.0 84 0.0 1.4 355 7.6 0
22:30 - 23:00 0.0 0.4 -0.2 85 0.0 4.0 360 8.3 0

Les dades en taronja només han passat un control de qualitat automàtic. Resta pendent la seva validació definitiva.